createdAt,value
2022-08-19T00:02:17.344Z,26.98
2022-08-19T00:04:47.512Z,26.97
2022-08-19T00:07:15.182Z,26.97
2022-08-19T00:09:42.636Z,26.96
2022-08-19T00:12:10.098Z,26.97
2022-08-19T00:14:39.172Z,26.97
2022-08-19T00:17:07.535Z,26.97
2022-08-19T00:19:36.266Z,26.95
2022-08-19T00:22:04.696Z,26.95
2022-08-19T00:24:32.921Z,26.95
2022-08-19T00:27:25.168Z,26.94
2022-08-19T00:29:52.273Z,26.95
2022-08-19T00:32:21.674Z,26.94
2022-08-19T00:34:49.049Z,26.93
2022-08-19T00:37:16.740Z,26.93
2022-08-19T00:39:44.194Z,26.91
2022-08-19T00:42:15.857Z,26.90
2022-08-19T00:44:44.133Z,26.87
2022-08-19T00:47:14.114Z,26.85
2022-08-19T00:49:46.975Z,26.86
2022-08-19T00:52:24.817Z,26.85
2022-08-19T00:54:53.888Z,26.83
2022-08-19T00:57:28.899Z,26.85
2022-08-19T01:00:02.353Z,26.84
2022-08-19T01:02:33.213Z,26.82
2022-08-19T01:05:04.017Z,26.81
2022-08-19T01:07:35.748Z,26.81
2022-08-19T01:10:12.617Z,26.81
2022-08-19T01:12:40.535Z,26.82
2022-08-19T01:15:11.226Z,26.83
2022-08-19T01:17:41.246Z,26.84
2022-08-19T01:20:13.765Z,26.80
2022-08-19T01:22:46.528Z,26.80
2022-08-19T01:25:20.677Z,26.79
2022-08-19T01:27:53.281Z,26.80
2022-08-19T01:30:31.212Z,26.78
2022-08-19T01:33:01.437Z,26.78
2022-08-19T01:35:31.086Z,26.77
2022-08-19T01:38:02.090Z,26.74
2022-08-19T01:40:32.725Z,26.74
2022-08-19T01:43:00.542Z,26.74
2022-08-19T01:45:29.820Z,26.72
2022-08-19T01:48:02.377Z,26.72
2022-08-19T01:50:32.765Z,26.73
2022-08-19T01:53:06.369Z,26.73
2022-08-19T01:55:41.565Z,26.71
2022-08-19T01:58:17.714Z,26.67
2022-08-19T02:00:46.281Z,26.65
2022-08-19T02:03:14.277Z,26.64
2022-08-19T02:05:43.473Z,26.63
2022-08-19T02:08:11.380Z,26.60
2022-08-19T02:10:42.288Z,26.57
2022-08-19T02:13:11.922Z,26.59
2022-08-19T02:15:39.602Z,26.60
2022-08-19T02:18:09.117Z,26.59
2022-08-19T02:20:38.137Z,26.59
2022-08-19T02:23:13.912Z,26.56
2022-08-19T02:25:45.702Z,26.55
2022-08-19T02:28:17.896Z,26.55
2022-08-19T02:30:48.491Z,26.50
2022-08-19T02:33:17.013Z,26.51
2022-08-19T02:35:46.462Z,26.50
2022-08-19T02:38:27.142Z,26.48
2022-08-19T02:41:00.437Z,26.47
2022-08-19T02:43:29.874Z,26.48
2022-08-19T02:46:02.655Z,26.45
2022-08-19T02:48:30.207Z,26.44
2022-08-19T02:50:57.632Z,26.43
2022-08-19T02:53:28.383Z,26.43
2022-08-19T02:55:56.019Z,26.44
2022-08-19T02:58:25.196Z,26.44
2022-08-19T03:00:56.555Z,26.43
2022-08-19T03:03:24.548Z,26.44
2022-08-19T03:05:56.459Z,26.46
2022-08-19T03:08:26.821Z,26.45
2022-08-19T03:10:54.806Z,26.46
2022-08-19T03:13:22.614Z,26.44
2022-08-19T03:15:50.352Z,26.45
2022-08-19T03:18:18.389Z,26.45
2022-08-19T03:20:49.396Z,26.45
2022-08-19T03:23:18.016Z,26.45
2022-08-19T03:26:03.875Z,26.45
2022-08-19T03:28:38.627Z,26.45
2022-08-19T03:31:43.283Z,26.43
2022-08-19T03:33:57.619Z,26.44
2022-08-19T03:36:29.510Z,26.43
2022-08-19T03:39:00.341Z,26.43
2022-08-19T03:41:34.397Z,26.43
2022-08-19T03:44:17.875Z,26.42
2022-08-19T03:46:48.980Z,26.41
2022-08-19T03:49:18.754Z,26.41
2022-08-19T03:51:49.257Z,26.40
2022-08-19T03:54:19.720Z,26.41
2022-08-19T03:56:49.669Z,26.39
2022-08-19T03:59:27.359Z,26.40
2022-08-19T04:01:56.903Z,26.39
2022-08-19T04:04:29.088Z,26.39
2022-08-19T04:06:57.761Z,26.37
2022-08-19T04:09:26.842Z,26.39
2022-08-19T04:11:58.275Z,26.36
2022-08-19T04:14:34.669Z,26.35
2022-08-19T04:17:05.622Z,26.37
2022-08-19T04:19:36.262Z,26.34
2022-08-19T04:22:05.014Z,26.32
2022-08-19T04:24:32.818Z,26.33
2022-08-19T04:27:05.032Z,26.34
2022-08-19T04:29:33.772Z,26.32
2022-08-19T04:32:09.061Z,26.31
2022-08-19T04:35:15.765Z,26.30
2022-08-19T04:37:29.301Z,26.28
2022-08-19T04:40:24.280Z,26.27
2022-08-19T04:42:52.174Z,26.28
2022-08-19T04:45:20.100Z,26.27
2022-08-19T04:47:58.428Z,26.26
2022-08-19T04:50:42.590Z,26.28
2022-08-19T04:53:10.734Z,26.33
2022-08-19T04:55:43.398Z,26.36
2022-08-19T04:58:11.297Z,26.37
2022-08-19T05:00:41.150Z,26.38
2022-08-19T05:03:09.071Z,26.37
2022-08-19T05:05:44.516Z,26.41
2022-08-19T05:08:15.202Z,26.43
2022-08-19T05:10:45.479Z,26.46
2022-08-19T05:13:12.910Z,26.49
2022-08-19T05:15:40.475Z,26.49
2022-08-19T05:18:26.788Z,26.53
2022-08-19T05:21:13.904Z,26.56
2022-08-19T05:23:42.093Z,26.57
2022-08-19T05:26:11.881Z,26.59
2022-08-19T05:28:39.405Z,26.60
2022-08-19T05:31:07.224Z,26.60
2022-08-19T05:33:34.705Z,26.64
2022-08-19T05:36:03.762Z,26.66
2022-08-19T05:38:31.593Z,26.67
2022-08-19T05:40:59.040Z,26.70
2022-08-19T05:43:26.675Z,26.70
2022-08-19T05:45:54.348Z,26.69
2022-08-19T05:48:21.822Z,26.70
2022-08-19T05:50:51.221Z,26.71
2022-08-19T05:53:19.671Z,26.71
2022-08-19T05:55:47.108Z,26.71
2022-08-19T05:58:14.597Z,26.70
2022-08-19T06:00:45.686Z,26.72
2022-08-19T06:03:13.515Z,26.73
2022-08-19T06:05:46.147Z,26.74
2022-08-19T06:08:20.562Z,26.77
2022-08-19T06:11:15.995Z,26.78
2022-08-19T06:13:46.048Z,26.80
2022-08-19T06:16:13.570Z,26.81
2022-08-19T06:18:41.069Z,26.81
2022-08-19T06:21:08.779Z,26.82
2022-08-19T06:23:36.471Z,26.83
2022-08-19T06:26:05.995Z,26.84
2022-08-19T06:28:34.370Z,26.87
2022-08-19T06:31:07.470Z,26.86
2022-08-19T06:33:35.330Z,26.86
2022-08-19T06:36:03.053Z,26.86
2022-08-19T06:38:30.448Z,26.88
2022-08-19T06:41:03.082Z,26.90
2022-08-19T06:43:37.052Z,26.90
2022-08-19T06:46:12.902Z,26.92
2022-08-19T06:48:45.268Z,26.93
2022-08-19T06:51:19.702Z,26.94
2022-08-19T06:53:53.907Z,26.95
2022-08-19T06:56:25.834Z,26.96
2022-08-19T06:58:53.798Z,26.97
2022-08-19T07:01:22.547Z,26.98
2022-08-19T07:03:49.956Z,27.00
2022-08-19T07:06:43.119Z,27.01
2022-08-19T07:09:10.420Z,27.03
2022-08-19T07:11:39.896Z,27.05
2022-08-19T07:14:07.455Z,27.07
2022-08-19T07:16:49.586Z,27.09
2022-08-19T07:19:18.682Z,27.09
2022-08-19T07:21:53.601Z,27.12
2022-08-19T07:24:24.791Z,27.12
2022-08-19T07:27:01.365Z,27.13
2022-08-19T07:29:34.278Z,27.12
2022-08-19T07:32:04.191Z,27.12
2022-08-19T07:34:35.420Z,27.13
2022-08-19T07:37:03.198Z,27.14
2022-08-19T07:39:33.391Z,27.14
2022-08-19T07:42:04.612Z,27.16
2022-08-19T07:44:32.137Z,27.15
2022-08-19T07:47:01.079Z,27.17
2022-08-19T07:49:29.373Z,27.17
2022-08-19T07:51:58.804Z,27.18
2022-08-19T07:54:29.194Z,27.19
2022-08-19T07:56:57.796Z,27.20
2022-08-19T07:59:26.023Z,27.22
2022-08-19T08:01:53.595Z,27.24
2022-08-19T08:04:40.110Z,27.27
2022-08-19T08:07:31.454Z,27.29
2022-08-19T08:10:00.799Z,27.32
2022-08-19T08:12:39.765Z,27.34
2022-08-19T08:15:12.816Z,27.34
2022-08-19T08:17:48.756Z,27.35
2022-08-19T08:20:18.389Z,27.36
2022-08-19T08:23:06.330Z,27.37
2022-08-19T08:25:36.346Z,27.37
2022-08-19T08:28:05.198Z,27.39
2022-08-19T08:30:37.044Z,27.38
2022-08-19T08:33:05.340Z,27.40
2022-08-19T08:35:32.994Z,27.39
2022-08-19T08:38:00.679Z,27.40
2022-08-19T08:40:35.359Z,27.40
2022-08-19T08:43:15.437Z,27.42
2022-08-19T08:45:53.382Z,27.43
2022-08-19T08:48:32.223Z,27.44
2022-08-19T08:51:03.369Z,27.45
2022-08-19T08:53:35.673Z,27.47
2022-08-19T08:56:13.906Z,27.49
2022-08-19T08:58:54.392Z,27.52
2022-08-19T09:01:23.715Z,27.52
2022-08-19T09:03:56.526Z,27.53
2022-08-19T09:06:56.978Z,27.54
2022-08-19T09:09:24.610Z,27.57
2022-08-19T09:12:26.869Z,27.58
2022-08-19T09:15:02.538Z,27.59
2022-08-19T09:17:34.505Z,27.61
2022-08-19T09:20:09.039Z,27.64
2022-08-19T09:22:38.995Z,27.64
2022-08-19T09:25:09.157Z,27.64
2022-08-19T09:27:42.868Z,27.66
2022-08-19T09:30:18.315Z,27.65
2022-08-19T09:32:46.231Z,27.64
2022-08-19T09:35:15.012Z,27.64
2022-08-19T09:37:43.972Z,27.65
2022-08-19T09:40:13.803Z,27.66
2022-08-19T09:42:50.363Z,27.69
2022-08-19T09:45:23.003Z,27.69
2022-08-19T09:47:54.206Z,27.71
2022-08-19T09:50:24.633Z,27.73
2022-08-19T09:52:55.648Z,27.75
2022-08-19T09:55:31.701Z,27.77
2022-08-19T09:58:02.524Z,27.79
2022-08-19T10:00:31.903Z,27.79
2022-08-19T10:02:59.403Z,27.80
2022-08-19T10:05:45.686Z,27.81
2022-08-19T10:08:22.181Z,27.84
2022-08-19T10:10:55.881Z,27.86
2022-08-19T10:13:27.485Z,27.87
2022-08-19T10:15:57.431Z,27.87
2022-08-19T10:18:26.345Z,27.87
2022-08-19T10:21:09.825Z,27.89
2022-08-19T10:23:41.307Z,27.90
2022-08-19T10:26:08.821Z,27.90
2022-08-19T10:28:39.006Z,27.92
2022-08-19T10:31:12.639Z,27.94
2022-08-19T10:33:53.441Z,27.96
2022-08-19T10:36:23.681Z,27.97
2022-08-19T10:38:56.694Z,27.98
2022-08-19T10:41:27.259Z,28.01
2022-08-19T10:43:57.471Z,28.03
2022-08-19T10:46:33.657Z,28.06
2022-08-19T10:49:02.711Z,28.05
2022-08-19T10:51:49.594Z,28.07
2022-08-19T10:54:31.103Z,28.10
2022-08-19T10:57:00.817Z,28.09
2022-08-19T10:59:35.301Z,28.12
2022-08-19T11:02:05.693Z,28.12
2022-08-19T11:04:34.221Z,28.13
2022-08-19T11:07:05.506Z,28.15
2022-08-19T11:09:39.842Z,28.16
2022-08-19T11:12:08.582Z,28.20
2022-08-19T11:14:37.040Z,28.21
2022-08-19T11:17:06.626Z,28.22
2022-08-19T11:19:35.028Z,28.26
2022-08-19T11:22:03.834Z,28.28
2022-08-19T11:24:32.341Z,28.28
2022-08-19T11:27:07.148Z,28.28
2022-08-19T11:29:35.392Z,28.29
2022-08-19T11:32:11.158Z,28.27
2022-08-19T11:34:38.961Z,28.28
2022-08-19T11:37:07.262Z,28.28
2022-08-19T11:39:37.738Z,28.29
2022-08-19T11:42:27.273Z,28.32
2022-08-19T11:44:55.395Z,28.37
2022-08-19T11:47:24.150Z,28.38
2022-08-19T11:49:54.327Z,28.39
2022-08-19T11:52:21.997Z,28.39
2022-08-19T11:54:49.637Z,28.41
2022-08-19T11:57:17.956Z,28.41
2022-08-19T11:59:50.705Z,28.40
2022-08-19T12:02:18.714Z,28.40
2022-08-19T12:04:46.242Z,28.40
2022-08-19T12:07:14.081Z,28.40
2022-08-19T12:09:42.694Z,28.39
2022-08-19T12:12:10.761Z,28.39
2022-08-19T12:14:38.469Z,28.37
2022-08-19T12:17:08.446Z,28.36
2022-08-19T12:19:38.029Z,28.37
2022-08-19T12:22:07.028Z,28.37
2022-08-19T12:24:35.816Z,28.37
2022-08-19T12:27:03.746Z,28.37
2022-08-19T12:29:32.088Z,28.39
2022-08-19T12:32:01.490Z,28.40
2022-08-19T12:34:33.403Z,28.41
2022-08-19T12:37:04.117Z,28.43
2022-08-19T12:39:38.415Z,28.43
2022-08-19T12:42:06.849Z,28.43
2022-08-19T12:44:35.890Z,28.44
2022-08-19T12:47:05.339Z,28.44
2022-08-19T12:49:54.113Z,28.43
2022-08-19T12:52:27.963Z,28.45
2022-08-19T12:54:57.499Z,28.47
2022-08-19T12:57:32.967Z,28.50
2022-08-19T13:00:14.413Z,28.50
2022-08-19T13:02:46.964Z,28.55
2022-08-19T13:05:17.754Z,28.56
2022-08-19T13:07:45.169Z,28.57
2022-08-19T13:10:16.436Z,28.60
2022-08-19T13:12:45.701Z,28.57
2022-08-19T13:15:15.226Z,28.56
2022-08-19T13:17:43.114Z,28.55
2022-08-19T13:20:12.134Z,28.55
2022-08-19T13:22:40.012Z,28.55
2022-08-19T13:25:09.225Z,28.55
2022-08-19T13:27:37.491Z,28.55
2022-08-19T13:30:26.282Z,28.55
2022-08-19T13:33:12.591Z,28.56
2022-08-19T13:35:51.073Z,28.56
2022-08-19T13:38:21.516Z,28.55
2022-08-19T13:40:52.504Z,28.55
2022-08-19T13:43:24.965Z,28.56
2022-08-19T13:45:56.672Z,28.56
2022-08-19T13:48:27.342Z,28.56
2022-08-19T13:50:55.409Z,28.56
2022-08-19T13:53:22.897Z,28.57
2022-08-19T13:55:52.078Z,28.57
2022-08-19T13:58:19.571Z,28.56
2022-08-19T14:00:47.481Z,28.57
2022-08-19T14:03:16.443Z,28.57
2022-08-19T14:05:43.934Z,28.57
2022-08-19T14:08:14.969Z,28.58
2022-08-19T14:10:45.361Z,28.58
2022-08-19T14:13:16.802Z,28.59
2022-08-19T14:15:44.963Z,28.60
2022-08-19T14:18:12.743Z,28.61
2022-08-19T14:20:40.318Z,28.62
2022-08-19T14:23:08.014Z,28.64
2022-08-19T14:25:36.013Z,28.66
2022-08-19T14:28:03.659Z,28.68
2022-08-19T14:30:35.469Z,28.69
2022-08-19T14:33:03.574Z,28.69
2022-08-19T14:35:35.538Z,28.70
2022-08-19T14:38:07.546Z,28.70
2022-08-19T14:40:35.611Z,28.72
2022-08-19T14:43:05.359Z,28.73
2022-08-19T14:45:37.002Z,28.72
2022-08-19T14:48:06.166Z,28.74
2022-08-19T14:50:35.113Z,28.74
2022-08-19T14:53:09.375Z,28.74
2022-08-19T14:55:45.103Z,28.75
2022-08-19T14:58:29.657Z,28.76
2022-08-19T15:01:00.918Z,28.78
2022-08-19T15:03:30.515Z,28.78
2022-08-19T15:05:59.169Z,28.77
2022-08-19T15:08:28.166Z,28.79
2022-08-19T15:10:56.701Z,28.80
2022-08-19T15:13:25.938Z,28.81
2022-08-19T15:15:53.917Z,28.82
2022-08-19T15:18:24.906Z,28.81
2022-08-19T15:20:52.679Z,28.81
2022-08-19T15:23:21.677Z,28.80
2022-08-19T15:25:52.948Z,28.80
2022-08-19T15:28:20.810Z,28.80
2022-08-19T15:30:48.853Z,28.80
2022-08-19T15:33:18.602Z,28.80
2022-08-19T15:35:48.489Z,28.79
2022-08-19T15:38:19.893Z,28.79
2022-08-19T15:40:49.590Z,28.79
2022-08-19T15:43:20.486Z,28.78
2022-08-19T15:45:49.541Z,28.78
2022-08-19T15:48:17.085Z,28.76
2022-08-19T15:50:44.471Z,28.76
2022-08-19T15:53:12.532Z,28.76
2022-08-19T15:55:45.522Z,28.75
2022-08-19T15:58:33.681Z,28.75
2022-08-19T16:01:24.017Z,28.75
2022-08-19T16:04:15.186Z,28.74
2022-08-19T16:06:48.330Z,28.73
2022-08-19T16:09:20.314Z,28.72
2022-08-19T16:11:56.587Z,28.72
2022-08-19T16:14:25.626Z,28.71
2022-08-19T16:16:55.791Z,28.71
2022-08-19T16:19:24.362Z,28.71
2022-08-19T16:21:54.553Z,28.71
2022-08-19T16:24:24.664Z,28.73
2022-08-19T16:26:52.222Z,28.71
2022-08-19T16:29:33.589Z,28.71
2022-08-19T16:32:09.911Z,28.71
2022-08-19T16:34:40.050Z,28.71
2022-08-19T16:37:07.913Z,28.74
2022-08-19T16:39:35.987Z,28.73
2022-08-19T16:42:07.450Z,28.73
2022-08-19T16:44:36.487Z,28.73
2022-08-19T16:47:04.178Z,28.71
2022-08-19T16:49:54.290Z,28.70
2022-08-19T16:52:20.923Z,28.67
2022-08-19T16:54:48.664Z,28.67
2022-08-19T16:57:16.882Z,28.66
2022-08-19T16:59:49.341Z,28.64
2022-08-19T17:02:23.449Z,28.62
2022-08-19T17:04:58.215Z,28.61
2022-08-19T17:07:28.572Z,28.58
2022-08-19T17:09:57.305Z,28.59
2022-08-19T17:12:29.026Z,28.59
2022-08-19T17:15:02.175Z,28.57
2022-08-19T17:17:30.774Z,28.58
2022-08-19T17:20:00.193Z,28.56
2022-08-19T17:22:27.974Z,28.56
2022-08-19T17:24:56.461Z,28.56
2022-08-19T17:27:31.499Z,28.57
2022-08-19T17:30:02.579Z,28.57
2022-08-19T17:32:34.309Z,28.58
2022-08-19T17:35:04.057Z,28.56
2022-08-19T17:37:31.787Z,28.54
2022-08-19T17:39:59.292Z,28.51
2022-08-19T17:42:27.056Z,28.51
2022-08-19T17:44:58.455Z,28.52
2022-08-19T17:47:28.406Z,28.53
2022-08-19T17:49:56.839Z,28.54
2022-08-19T17:52:25.524Z,28.50
2022-08-19T17:54:53.027Z,28.48
2022-08-19T17:57:20.701Z,28.45
2022-08-19T17:59:48.557Z,28.39
2022-08-19T18:02:20.667Z,28.38
2022-08-19T18:04:50.453Z,28.38
2022-08-19T18:07:21.460Z,28.37
2022-08-19T18:09:53.983Z,28.36
2022-08-19T18:12:26.889Z,28.35
2022-08-19T18:14:54.461Z,28.35
2022-08-19T18:17:24.352Z,28.35
2022-08-19T18:19:51.880Z,28.34
2022-08-19T18:22:36.845Z,28.29
2022-08-19T18:25:09.428Z,28.20
2022-08-19T18:27:37.138Z,28.03
2022-08-19T18:30:06.487Z,27.92
2022-08-19T18:32:38.255Z,27.88
2022-08-19T18:35:12.726Z,27.85
2022-08-19T18:37:42.761Z,27.81
2022-08-19T18:40:33.977Z,27.84
2022-08-19T18:43:23.097Z,27.87
2022-08-19T18:46:10.143Z,27.89
2022-08-19T18:48:57.751Z,27.95
2022-08-19T18:51:28.391Z,27.88
2022-08-19T18:53:58.784Z,27.81
2022-08-19T18:56:28.635Z,27.75
2022-08-19T18:58:59.376Z,27.71
2022-08-19T19:01:36.822Z,27.72
2022-08-19T19:04:10.613Z,27.71
2022-08-19T19:06:40.538Z,27.72
2022-08-19T19:09:13.579Z,27.74
2022-08-19T19:11:44.722Z,27.73
2022-08-19T19:14:27.648Z,27.67
2022-08-19T19:17:03.503Z,27.72
2022-08-19T19:19:32.098Z,27.75
2022-08-19T19:22:01.975Z,27.77
2022-08-19T19:24:32.739Z,27.75
2022-08-19T19:27:08.355Z,27.76
2022-08-19T19:29:37.307Z,27.76
2022-08-19T19:32:10.403Z,27.76
2022-08-19T19:34:40.078Z,27.75
2022-08-19T19:37:07.831Z,27.75
2022-08-19T19:39:45.430Z,27.69
2022-08-19T19:42:23.692Z,27.61
2022-08-19T19:44:54.795Z,27.53
2022-08-19T19:47:24.538Z,27.53
2022-08-19T19:50:13.175Z,27.54
2022-08-19T19:52:41.037Z,27.59
2022-08-19T19:55:09.847Z,27.59
2022-08-19T19:57:39.246Z,27.55
2022-08-19T20:00:09.987Z,27.52
2022-08-19T20:02:37.465Z,27.51
2022-08-19T20:05:05.628Z,27.55
2022-08-19T20:07:53.051Z,27.55
2022-08-19T20:10:20.754Z,27.53
2022-08-19T20:12:49.060Z,27.49
2022-08-19T20:15:16.641Z,27.45
2022-08-19T20:17:44.292Z,27.41
2022-08-19T20:20:14.878Z,27.40
2022-08-19T20:22:43.436Z,27.39
2022-08-19T20:25:12.021Z,27.41
2022-08-19T20:27:40.384Z,27.44
2022-08-19T20:30:13.827Z,27.41
2022-08-19T20:32:48.554Z,27.44
2022-08-19T20:35:19.374Z,27.47
2022-08-19T20:37:47.954Z,27.46
2022-08-19T20:40:21.764Z,27.44
2022-08-19T20:42:50.650Z,27.44
2022-08-19T20:45:33.126Z,27.46
2022-08-19T20:48:03.461Z,27.44
2022-08-19T20:50:33.371Z,27.44
2022-08-19T20:53:01.607Z,27.39
2022-08-19T20:55:30.382Z,27.37
2022-08-19T20:57:58.708Z,27.35
2022-08-19T21:00:26.821Z,27.37
2022-08-19T21:02:54.316Z,27.33
2022-08-19T21:05:22.141Z,27.36
2022-08-19T21:07:49.602Z,27.40
2022-08-19T21:10:17.918Z,27.44
2022-08-19T21:12:46.152Z,27.49
2022-08-19T21:15:13.821Z,27.51
2022-08-19T21:17:41.233Z,27.53
2022-08-19T21:20:09.966Z,27.55
2022-08-19T21:22:38.112Z,27.56
2022-08-19T21:25:07.297Z,27.57
2022-08-19T21:27:35.181Z,27.59
2022-08-19T21:30:05.120Z,27.59
2022-08-19T21:32:32.661Z,27.61
2022-08-19T21:35:01.347Z,27.62
2022-08-19T21:37:29.500Z,27.63
2022-08-19T21:39:56.972Z,27.63
2022-08-19T21:42:25.158Z,27.65
2022-08-19T21:44:53.273Z,27.66
2022-08-19T21:47:20.678Z,27.67
2022-08-19T21:49:48.325Z,27.67
2022-08-19T21:52:25.015Z,27.64
2022-08-19T21:54:53.123Z,27.61
2022-08-19T21:57:20.554Z,27.59
2022-08-19T21:59:48.022Z,27.58
2022-08-19T22:02:21.254Z,27.55
2022-08-19T22:04:53.135Z,27.52
2022-08-19T22:07:21.994Z,27.51
2022-08-19T22:09:50.788Z,27.52
2022-08-19T22:12:23.429Z,27.52
2022-08-19T22:14:52.197Z,27.51
2022-08-19T22:17:20.559Z,27.50
2022-08-19T22:19:48.893Z,27.52
2022-08-19T22:22:47.377Z,27.48
2022-08-19T22:25:25.719Z,27.47
2022-08-19T22:28:01.844Z,27.45
2022-08-19T22:30:33.169Z,27.44
2022-08-19T22:33:04.988Z,27.42
2022-08-19T22:35:35.849Z,27.42
2022-08-19T22:38:06.450Z,27.43
2022-08-19T22:40:37.091Z,27.41
2022-08-19T22:43:09.124Z,27.41
2022-08-19T22:45:39.541Z,27.39
2022-08-19T22:48:09.196Z,27.37
2022-08-19T22:50:38.332Z,27.34
2022-08-19T22:53:09.520Z,27.33
2022-08-19T22:55:38.866Z,27.36
2022-08-19T22:58:06.410Z,27.39
2022-08-19T23:00:34.810Z,27.41
2022-08-19T23:03:04.841Z,27.45
2022-08-19T23:05:32.272Z,27.49
2022-08-19T23:08:04.179Z,27.52
2022-08-19T23:10:32.077Z,27.56
2022-08-19T23:13:00.163Z,27.58
2022-08-19T23:15:30.481Z,27.61
2022-08-19T23:18:01.249Z,27.63
2022-08-19T23:20:34.063Z,27.64
2022-08-19T23:23:05.528Z,27.67
2022-08-19T23:25:35.997Z,27.70
2022-08-19T23:28:23.893Z,27.69
2022-08-19T23:30:53.406Z,27.71
2022-08-19T23:33:46.571Z,27.74
2022-08-19T23:36:19.936Z,27.75
2022-08-19T23:38:49.383Z,27.76
2022-08-19T23:41:19.122Z,27.76
2022-08-19T23:43:46.644Z,27.78
2022-08-19T23:46:27.281Z,27.78
2022-08-19T23:48:56.888Z,27.79
2022-08-19T23:51:26.298Z,27.80
2022-08-19T23:53:53.805Z,27.79
2022-08-19T23:56:21.495Z,27.80
2022-08-19T23:58:49.191Z,27.82
